createdAt,value
2018-09-14T00:00:54.922Z,13.97
2018-09-14T00:01:54.387Z,13.97
2018-09-14T00:03:50.834Z,13.94
2018-09-14T00:04:51.336Z,13.91
2018-09-14T00:06:46.275Z,13.90
2018-09-14T00:07:46.305Z,13.88
2018-09-14T00:09:43.278Z,13.78
2018-09-14T00:10:42.644Z,13.83
2018-09-14T00:12:42.737Z,13.81
2018-09-14T00:13:41.244Z,13.84
2018-09-14T00:15:38.238Z,13.91
2018-09-14T00:16:38.232Z,13.91
2018-09-14T00:18:36.738Z,13.95
2018-09-14T00:19:36.363Z,13.91
2018-09-14T00:21:32.254Z,13.91
2018-09-14T00:22:32.264Z,13.91
2018-09-14T00:24:30.187Z,13.75
2018-09-14T00:25:31.145Z,13.79
2018-09-14T00:27:28.657Z,13.75
2018-09-14T00:28:28.124Z,13.63
2018-09-14T00:30:26.276Z,13.68
2018-09-14T00:31:27.067Z,13.68
2018-09-14T00:33:22.243Z,13.68
2018-09-14T00:34:22.171Z,13.68
2018-09-14T00:36:18.171Z,13.70
2018-09-14T00:37:18.116Z,13.57
2018-09-14T00:39:15.066Z,13.65
2018-09-14T00:40:14.085Z,13.60
2018-09-14T00:42:10.031Z,13.63
2018-09-14T00:43:11.502Z,13.55
2018-09-14T00:45:05.954Z,13.66
2018-09-14T00:46:06.451Z,13.60
2018-09-14T00:48:01.883Z,13.68
2018-09-14T00:49:01.861Z,13.66
2018-09-14T00:50:57.842Z,13.72
2018-09-14T00:51:58.753Z,13.62
2018-09-14T00:53:55.732Z,13.68
2018-09-14T00:54:57.265Z,13.65
2018-09-14T00:56:52.202Z,13.65
2018-09-14T00:57:51.686Z,13.65
2018-09-14T00:59:51.164Z,13.50
2018-09-14T01:00:50.648Z,13.53
2018-09-14T01:02:45.830Z,13.51
2018-09-14T01:03:45.791Z,13.55
2018-09-14T01:05:43.771Z,13.45
2018-09-14T01:06:43.730Z,13.45
2018-09-14T01:08:42.699Z,13.58
2018-09-14T01:09:42.209Z,13.47
2018-09-14T01:11:41.121Z,13.51
2018-09-14T01:12:40.537Z,13.54
2018-09-14T01:14:37.716Z,13.45
2018-09-14T01:15:38.484Z,13.45
2018-09-14T01:17:35.650Z,13.48
2018-09-14T01:18:35.640Z,13.39
2018-09-14T01:20:33.104Z,13.45
2018-09-14T01:21:31.601Z,13.39
2018-09-14T01:23:28.539Z,13.53
2018-09-14T01:24:27.533Z,13.40
2018-09-14T01:26:26.120Z,13.39
2018-09-14T01:27:26.011Z,13.40
2018-09-14T01:29:23.610Z,13.40
2018-09-14T01:30:23.439Z,13.37
2018-09-14T01:32:22.444Z,13.35
2018-09-14T01:33:21.572Z,13.19
2018-09-14T01:35:19.686Z,13.21
2018-09-14T01:36:19.704Z,13.25
2018-09-14T01:38:16.134Z,13.21
2018-09-14T01:39:15.662Z,13.06
2018-09-14T01:41:11.550Z,13.03
2018-09-14T01:42:11.553Z,13.03
2018-09-14T01:44:11.483Z,13.09
2018-09-14T01:45:09.660Z,13.02
2018-09-14T01:47:08.128Z,12.99
2018-09-14T01:48:07.614Z,12.96
2018-09-14T01:50:03.559Z,12.94
2018-09-14T01:51:03.531Z,13.02
2018-09-14T01:53:02.471Z,13.09
2018-09-14T01:54:01.631Z,12.98
2018-09-14T01:56:00.601Z,12.96
2018-09-14T01:56:59.575Z,13.02
2018-09-14T01:58:58.547Z,12.99
2018-09-14T01:59:57.707Z,13.03
2018-09-14T02:01:57.136Z,13.03
2018-09-14T02:02:55.965Z,12.89
2018-09-14T02:04:52.414Z,13.01
2018-09-14T02:05:51.896Z,13.02
2018-09-14T02:07:53.395Z,13.03
2018-09-14T02:08:53.833Z,12.89
2018-09-14T02:10:51.104Z,12.95
2018-09-14T02:11:51.023Z,12.95
2018-09-14T02:13:49.478Z,12.96
2018-09-14T02:14:48.956Z,12.94
2018-09-14T02:16:47.951Z,12.95
2018-09-14T02:17:47.068Z,12.96
2018-09-14T02:19:46.020Z,12.92
2018-09-14T02:20:45.036Z,12.96
2018-09-14T02:22:40.962Z,12.96
2018-09-14T02:23:40.962Z,12.86
2018-09-14T02:25:39.163Z,12.83
2018-09-14T02:26:39.071Z,12.77
2018-09-14T02:28:37.037Z,12.76
2018-09-14T02:29:36.997Z,12.74
2018-09-14T02:31:34.929Z,12.65
2018-09-14T02:32:35.462Z,12.71
2018-09-14T02:34:33.873Z,12.65
2018-09-14T02:35:32.879Z,12.63
2018-09-14T02:37:30.846Z,12.65
2018-09-14T02:38:30.863Z,12.65
2018-09-14T02:40:29.292Z,12.70
2018-09-14T02:41:28.777Z,12.69
2018-09-14T02:43:24.743Z,12.70
2018-09-14T02:44:25.662Z,12.71
2018-09-14T02:46:22.678Z,12.77
2018-09-14T02:47:22.660Z,12.81
2018-09-14T02:49:19.645Z,12.77
2018-09-14T02:50:19.111Z,12.74
2018-09-14T02:52:14.518Z,12.76
2018-09-14T02:53:14.539Z,12.80
2018-09-14T02:55:12.481Z,12.89
2018-09-14T02:56:11.489Z,12.74
2018-09-14T02:58:08.437Z,12.78
2018-09-14T02:59:07.550Z,12.77
2018-09-14T03:01:05.452Z,12.70
2018-09-14T03:02:05.476Z,12.76
2018-09-14T03:04:03.595Z,12.73
2018-09-14T03:05:03.645Z,12.77
2018-09-14T03:06:59.548Z,12.74
2018-09-14T03:07:59.523Z,12.73
2018-09-14T03:09:57.489Z,12.70
2018-09-14T03:10:57.483Z,12.66
2018-09-14T03:12:53.446Z,12.70
2018-09-14T03:13:53.430Z,12.66
2018-09-14T03:15:50.423Z,12.73
2018-09-14T03:16:50.397Z,12.71
2018-09-14T03:18:47.312Z,12.69
2018-09-14T03:19:47.306Z,12.70
2018-09-14T03:21:43.762Z,12.71
2018-09-14T03:22:43.235Z,12.70
2018-09-14T03:24:41.699Z,12.76
2018-09-14T03:25:41.329Z,12.71
2018-09-14T03:27:37.305Z,12.76
2018-09-14T03:28:37.255Z,12.71
2018-09-14T03:30:35.224Z,12.73
2018-09-14T03:31:35.234Z,12.69
2018-09-14T03:33:33.160Z,12.69
2018-09-14T03:34:33.174Z,12.70
2018-09-14T03:36:31.118Z,12.70
2018-09-14T03:37:31.089Z,12.77
2018-09-14T03:39:29.060Z,12.74
2018-09-14T03:40:29.047Z,12.80
2018-09-14T03:42:27.012Z,12.73
2018-09-14T03:43:26.976Z,12.66
2018-09-14T03:45:25.963Z,12.71
2018-09-14T03:46:24.966Z,12.74
2018-09-14T03:48:28.412Z,12.63
2018-09-14T03:49:26.514Z,12.70
2018-09-14T03:51:22.961Z,12.66
2018-09-14T03:52:22.413Z,12.69
2018-09-14T03:54:20.344Z,12.66
2018-09-14T03:55:20.349Z,12.58
2018-09-14T03:57:18.845Z,12.63
2018-09-14T03:58:18.477Z,12.55
2018-09-14T04:00:15.405Z,12.62
2018-09-14T04:01:15.408Z,12.51
2018-09-14T04:03:11.379Z,12.61
2018-09-14T04:04:11.895Z,12.56
2018-09-14T04:06:09.272Z,12.44
2018-09-14T04:07:09.283Z,12.45
2018-09-14T04:09:07.242Z,12.34
2018-09-14T04:10:07.211Z,12.45
2018-09-14T04:12:05.690Z,12.51
2018-09-14T04:13:05.334Z,12.34
2018-09-14T04:15:01.773Z,12.47
2018-09-14T04:16:01.234Z,12.44
2018-09-14T04:17:57.298Z,12.47
2018-09-14T04:18:57.183Z,12.40
2018-09-14T04:20:56.151Z,12.51
2018-09-14T04:21:55.114Z,12.55
2018-09-14T04:23:53.047Z,12.51
2018-09-14T04:24:53.051Z,12.40
2018-09-14T04:26:51.499Z,12.43
2018-09-14T04:27:51.141Z,12.47
2018-09-14T04:29:49.130Z,12.44
2018-09-14T04:30:49.066Z,12.45
2018-09-14T04:32:46.063Z,12.36
2018-09-14T04:33:45.021Z,12.45
2018-09-14T04:35:43.891Z,12.38
2018-09-14T04:36:42.988Z,12.43
2018-09-14T04:38:44.989Z,12.53
2018-09-14T04:39:43.777Z,12.52
2018-09-14T04:41:40.169Z,12.40
2018-09-14T04:42:39.643Z,12.40
2018-09-14T04:44:35.616Z,12.47
2018-09-14T04:45:35.565Z,12.52
2018-09-14T04:47:33.521Z,12.58
2018-09-14T04:48:33.561Z,12.55
2018-09-14T04:50:30.444Z,12.44
2018-09-14T04:51:29.505Z,12.38
2018-09-14T04:53:27.362Z,12.55
2018-09-14T04:54:27.388Z,12.55
2018-09-14T04:56:25.283Z,12.51
2018-09-14T04:57:25.438Z,12.52
2018-09-14T04:59:24.232Z,12.43
2018-09-14T05:00:23.416Z,12.41
2018-09-14T05:02:21.380Z,12.51
2018-09-14T05:03:22.915Z,12.43
2018-09-14T05:05:19.442Z,12.40
2018-09-14T05:06:19.469Z,12.51
2018-09-14T05:08:18.385Z,12.45
2018-09-14T05:09:18.384Z,12.44
2018-09-14T05:11:14.527Z,12.40
2018-09-14T05:12:14.054Z,12.52
2018-09-14T05:14:12.968Z,12.52
2018-09-14T05:15:12.482Z,12.40
2018-09-14T05:17:09.599Z,12.51
2018-09-14T05:18:09.589Z,12.53
2018-09-14T05:20:07.537Z,12.56
2018-09-14T05:21:07.522Z,12.52
2018-09-14T05:23:16.863Z,12.53
2018-09-14T05:24:16.898Z,12.56
2018-09-14T05:26:14.850Z,12.58
2018-09-14T05:27:15.017Z,12.58
2018-09-14T05:29:17.294Z,12.52
2018-09-14T05:30:13.404Z,12.56
2018-09-14T05:32:09.917Z,12.56
2018-09-14T05:33:09.862Z,12.55
2018-09-14T05:35:05.299Z,12.59
2018-09-14T05:36:05.782Z,12.59
2018-09-14T05:38:03.213Z,12.66
2018-09-14T05:39:04.737Z,12.73
2018-09-14T05:40:57.810Z,12.71
2018-09-14T05:41:57.852Z,12.88
2018-09-14T05:43:56.765Z,12.81
2018-09-14T05:44:56.775Z,12.81
2018-09-14T05:46:51.865Z,12.92
2018-09-14T05:47:51.814Z,12.92
2018-09-14T05:49:47.793Z,13.06
2018-09-14T05:50:47.763Z,13.13
2018-09-14T05:52:45.686Z,13.24
2018-09-14T05:53:44.535Z,13.27
2018-09-14T05:55:41.008Z,13.35
2018-09-14T05:56:40.509Z,13.29
2018-09-14T05:58:36.479Z,13.42
2018-09-14T05:59:36.966Z,13.45
2018-09-14T06:01:32.344Z,13.54
2018-09-14T06:02:32.372Z,13.50
2018-09-14T06:04:28.808Z,13.68
2018-09-14T06:05:28.279Z,13.68
2018-09-14T06:07:25.249Z,13.79
2018-09-14T06:08:24.252Z,13.79
2018-09-14T06:10:20.144Z,13.83
2018-09-14T06:11:20.160Z,13.88
2018-09-14T06:13:16.135Z,14.01
2018-09-14T06:14:16.171Z,13.99
2018-09-14T06:16:12.055Z,14.08
2018-09-14T06:17:12.611Z,14.09
2018-09-14T06:19:08.458Z,14.15
2018-09-14T06:20:08.007Z,14.27
2018-09-14T06:22:03.944Z,14.27
2018-09-14T06:23:04.024Z,14.23
2018-09-14T06:25:00.908Z,14.30
2018-09-14T06:25:59.863Z,14.41
2018-09-14T06:27:57.240Z,14.48
2018-09-14T06:28:55.800Z,14.49
2018-09-14T06:30:51.705Z,14.60
2018-09-14T06:31:51.725Z,14.57
2018-09-14T06:33:48.171Z,14.70
2018-09-14T06:34:47.662Z,14.74
2018-09-14T06:36:44.617Z,14.77
2018-09-14T06:37:43.622Z,14.82
2018-09-14T06:39:56.734Z,14.83
2018-09-14T06:42:11.593Z,14.97
2018-09-14T06:43:11.159Z,14.98
2018-09-14T06:45:07.189Z,15.08
2018-09-14T06:46:07.136Z,15.16
2018-09-14T06:48:04.580Z,15.12
2018-09-14T06:49:03.078Z,15.22
2018-09-14T06:51:00.043Z,15.19
2018-09-14T06:51:59.041Z,15.19
2018-09-14T06:53:55.492Z,15.20
2018-09-14T06:54:54.947Z,15.23
2018-09-14T06:56:53.327Z,15.30
2018-09-14T06:57:50.870Z,15.31
2018-09-14T06:59:47.825Z,15.43
2018-09-14T07:00:47.329Z,15.38
2018-09-14T07:02:41.241Z,15.33
2018-09-14T07:03:41.253Z,15.35
2018-09-14T07:05:39.216Z,15.30
2018-09-14T07:06:37.240Z,15.34
2018-09-14T07:08:33.148Z,15.40
2018-09-14T07:09:33.138Z,15.40
2018-09-14T07:11:29.143Z,15.34
2018-09-14T07:12:29.065Z,15.49
2018-09-14T07:14:26.005Z,15.44
2018-09-14T07:15:26.008Z,15.40
2018-09-14T07:17:21.674Z,15.44
2018-09-14T07:18:21.155Z,15.52
2018-09-14T07:20:17.142Z,15.45
2018-09-14T07:21:17.092Z,15.60
2018-09-14T07:23:13.545Z,15.58
2018-09-14T07:24:13.083Z,15.60
2018-09-14T07:26:10.733Z,15.60
2018-09-14T07:29:24.942Z,15.70
2018-09-14T07:31:22.404Z,15.70
2018-09-14T07:32:20.856Z,15.73
2018-09-14T07:34:16.825Z,15.68
2018-09-14T07:35:17.307Z,15.71
2018-09-14T07:37:12.795Z,15.70
2018-09-14T07:38:12.744Z,15.83
2018-09-14T07:40:08.217Z,15.80
2018-09-14T07:41:08.242Z,15.93
2018-09-14T07:43:04.195Z,15.96
2018-09-14T07:44:04.180Z,16.00
2018-09-14T07:46:00.151Z,16.07
2018-09-14T07:47:01.050Z,16.08
2018-09-14T07:48:56.078Z,16.22
2018-09-14T07:49:56.035Z,16.18
2018-09-14T07:51:52.009Z,16.14
2018-09-14T07:52:52.515Z,16.33
2018-09-14T07:54:47.939Z,16.37
2018-09-14T07:55:48.908Z,16.37
2018-09-14T07:57:43.891Z,16.40
2018-09-14T07:58:43.881Z,16.51
2018-09-14T08:00:39.825Z,16.67
2018-09-14T08:01:40.317Z,16.66
2018-09-14T08:03:36.273Z,16.74
2018-09-14T08:04:35.813Z,16.80
2018-09-14T08:06:31.810Z,16.88
2018-09-14T08:07:31.747Z,16.88
2018-09-14T08:09:27.729Z,16.95
2018-09-14T08:10:27.732Z,16.88
2018-09-14T08:12:23.712Z,16.88
2018-09-14T08:13:23.695Z,16.92
2018-09-14T08:15:19.615Z,17.02
2018-09-14T08:16:19.590Z,17.10
2018-09-14T08:18:15.555Z,17.21
2018-09-14T08:19:15.547Z,17.12
2018-09-14T08:21:13.052Z,17.30
2018-09-14T08:22:11.986Z,17.20
2018-09-14T08:24:07.894Z,17.24
2018-09-14T08:25:07.383Z,17.17
2018-09-14T08:27:03.933Z,17.07
2018-09-14T08:28:03.374Z,16.95
2018-09-14T08:29:59.813Z,17.00
2018-09-14T08:30:59.273Z,17.02
2018-09-14T08:32:55.338Z,17.12
2018-09-14T08:33:55.229Z,17.12
2018-09-14T08:35:52.038Z,17.12
2018-09-14T08:36:51.993Z,17.13
2018-09-14T08:38:47.981Z,17.17
2018-09-14T08:39:47.958Z,17.15
2018-09-14T08:41:43.907Z,17.13
2018-09-14T08:42:43.862Z,17.15
2018-09-14T08:44:40.316Z,17.17
2018-09-14T08:45:40.758Z,17.12
2018-09-14T08:47:37.275Z,17.21
2018-09-14T08:48:35.775Z,17.25
2018-09-14T08:50:31.761Z,17.28
2018-09-14T08:51:32.209Z,17.42
2018-09-14T08:53:27.701Z,17.40
2018-09-14T08:54:27.658Z,17.38
2018-09-14T08:56:24.128Z,17.36
2018-09-14T08:57:23.622Z,17.42
2018-09-14T08:59:20.107Z,17.40
2018-09-14T09:00:19.608Z,17.38
2018-09-14T09:02:16.506Z,17.36
2018-09-14T09:03:15.533Z,17.39
2018-09-14T09:05:12.013Z,17.60
2018-09-14T09:06:11.468Z,17.55
2018-09-14T09:08:07.448Z,17.71
2018-09-14T09:09:07.456Z,17.74
2018-09-14T09:11:03.385Z,17.84
2018-09-14T09:12:04.381Z,17.84
2018-09-14T09:13:59.357Z,17.96
2018-09-14T09:14:59.859Z,17.99
2018-09-14T09:16:55.319Z,18.01
2018-09-14T09:17:55.323Z,18.16
2018-09-14T09:19:52.881Z,18.17
2018-09-14T09:20:51.262Z,18.19
2018-09-14T09:22:47.722Z,18.10
2018-09-14T09:23:47.202Z,18.14
2018-09-14T09:25:43.664Z,18.11
2018-09-14T09:26:43.154Z,18.11
2018-09-14T09:28:40.625Z,18.14
2018-09-14T09:29:39.125Z,18.13
2018-09-14T09:31:35.560Z,18.17
2018-09-14T09:32:35.024Z,18.19
2018-09-14T09:34:30.980Z,18.17
2018-09-14T09:35:31.484Z,18.38
2018-09-14T09:37:26.953Z,18.35
2018-09-14T09:38:26.943Z,18.42
2018-09-14T09:40:23.926Z,18.39
2018-09-14T09:41:22.879Z,18.49
2018-09-14T09:43:19.416Z,18.63
2018-09-14T09:44:18.837Z,18.63
2018-09-14T09:46:14.835Z,18.71
2018-09-14T09:47:14.874Z,18.82
2018-09-14T09:49:11.738Z,18.75
2018-09-14T09:50:10.722Z,18.82
2018-09-14T09:52:06.690Z,18.74
2018-09-14T09:53:06.691Z,18.65
2018-09-14T09:55:03.198Z,18.60
2018-09-14T09:56:04.160Z,18.56
2018-09-14T09:57:59.105Z,18.59
2018-09-14T09:58:58.660Z,18.68
2018-09-14T10:00:55.072Z,18.71
2018-09-14T10:01:54.517Z,18.84
2018-09-14T10:03:50.501Z,18.90
2018-09-14T10:04:50.594Z,18.90
2018-09-14T10:06:46.492Z,19.10
2018-09-14T10:07:46.477Z,19.10
2018-09-14T10:09:43.433Z,19.13
2018-09-14T10:10:42.474Z,19.19
2018-09-14T10:12:38.392Z,19.32
2018-09-14T10:13:39.000Z,19.35
2018-09-14T10:15:36.865Z,19.52
2018-09-14T10:16:37.373Z,19.56
2018-09-14T10:18:32.520Z,19.67
2018-09-14T10:19:33.149Z,19.68
2018-09-14T10:21:28.474Z,19.65
2018-09-14T10:22:28.404Z,19.72
2018-09-14T10:24:25.871Z,19.65
2018-09-14T10:26:40.381Z,19.64
2018-09-14T10:27:40.312Z,19.72
2018-09-14T10:29:36.777Z,19.90
2018-09-14T10:30:36.257Z,19.97
2018-09-14T10:32:32.245Z,20.05
2018-09-14T10:33:32.225Z,20.04
2018-09-14T10:35:28.192Z,20.07
2018-09-14T10:36:28.172Z,19.98
2018-09-14T10:38:24.163Z,19.93
2018-09-14T10:39:24.107Z,19.83
2018-09-14T10:41:20.055Z,19.98
2018-09-14T10:42:20.074Z,19.98
2018-09-14T10:44:16.059Z,20.10
2018-09-14T10:45:16.087Z,20.23
2018-09-14T10:47:14.953Z,20.42
2018-09-14T10:48:14.403Z,20.42
2018-09-14T10:50:10.592Z,20.54
2018-09-14T10:51:10.343Z,20.56
2018-09-14T10:53:06.416Z,20.37
2018-09-14T10:54:06.312Z,20.37
2018-09-14T10:56:04.294Z,20.44
2018-09-14T10:57:04.220Z,20.48
2018-09-14T10:59:02.174Z,20.22
2018-09-14T11:00:02.676Z,20.15
2018-09-14T11:02:00.176Z,20.25
2018-09-14T11:03:00.226Z,20.23
2018-09-14T11:04:56.114Z,20.23
2018-09-14T11:05:56.094Z,20.23
2018-09-14T11:07:52.061Z,20.37
2018-09-14T11:08:52.065Z,20.29
2018-09-14T11:10:47.995Z,20.49
2018-09-14T11:11:48.578Z,20.49
2018-09-14T11:13:44.944Z,20.51
2018-09-14T11:14:44.918Z,20.41
2018-09-14T11:16:41.872Z,20.34
2018-09-14T11:17:40.871Z,20.37
2018-09-14T11:19:38.759Z,20.38
2018-09-14T11:20:36.877Z,20.42
2018-09-14T11:22:32.731Z,20.53
2018-09-14T11:23:32.752Z,20.57
2018-09-14T11:25:31.214Z,20.61
2018-09-14T11:26:31.221Z,20.63
2018-09-14T11:28:31.185Z,20.79
2018-09-14T11:29:30.175Z,20.71
2018-09-14T11:31:25.238Z,20.71
2018-09-14T11:32:26.069Z,20.67
2018-09-14T11:34:21.255Z,20.79
2018-09-14T11:36:44.684Z,20.85
2018-09-14T11:37:48.599Z,20.86
2018-09-14T11:39:42.685Z,20.81
2018-09-14T11:40:42.644Z,20.67
2018-09-14T11:42:38.577Z,20.82
2018-09-14T11:43:38.564Z,20.78
2018-09-14T11:45:35.204Z,20.81
2018-09-14T11:46:35.217Z,20.81
2018-09-14T11:49:14.883Z,20.83
2018-09-14T11:50:14.942Z,20.88
2018-09-14T11:52:10.867Z,20.97
2018-09-14T11:53:10.887Z,21.01
2018-09-14T11:55:06.877Z,21.06
2018-09-14T11:56:06.836Z,21.11
2018-09-14T11:58:04.356Z,21.11
2018-09-14T11:59:02.828Z,21.23
2018-09-14T12:00:58.790Z,21.19
2018-09-14T12:01:58.726Z,21.22
2018-09-14T12:03:52.761Z,21.18
2018-09-14T12:04:52.170Z,21.25
2018-09-14T12:06:46.703Z,21.03
2018-09-14T12:07:47.632Z,21.12
2018-09-14T12:09:43.613Z,21.22
2018-09-14T12:10:42.634Z,21.22
2018-09-14T12:12:39.072Z,21.37
2018-09-14T12:13:38.596Z,21.33
2018-09-14T12:15:34.539Z,21.28
2018-09-14T12:16:34.543Z,21.31
2018-09-14T12:18:31.490Z,21.23
2018-09-14T12:19:30.512Z,21.09
2018-09-14T12:21:27.975Z,21.04
2018-09-14T12:22:26.978Z,20.98
2018-09-14T12:24:22.409Z,20.96
2018-09-14T12:25:22.389Z,20.97
2018-09-14T12:27:18.372Z,21.04
2018-09-14T12:28:18.893Z,21.22
2018-09-14T12:30:17.041Z,21.28
2018-09-14T12:31:14.795Z,21.22
2018-09-14T12:33:11.765Z,21.16
2018-09-14T12:34:12.259Z,21.18
2018-09-14T12:36:07.548Z,21.11
2018-09-14T12:37:07.531Z,21.22
2018-09-14T12:39:03.986Z,21.33
2018-09-14T12:40:03.987Z,21.41
2018-09-14T12:42:16.049Z,21.38
2018-09-14T12:43:01.449Z,21.30
2018-09-14T12:44:59.374Z,21.31
2018-09-14T12:45:57.382Z,21.33
2018-09-14T12:47:54.342Z,21.38
2018-09-14T12:48:53.351Z,21.31
2018-09-14T12:50:50.308Z,21.55
2018-09-14T12:51:49.279Z,21.43
2018-09-14T12:53:45.225Z,21.51
2018-09-14T12:54:45.737Z,21.45
2018-09-14T12:56:41.177Z,21.67
2018-09-14T12:57:41.172Z,21.64
2018-09-14T12:59:52.933Z,21.64
2018-09-14T13:00:37.815Z,21.59
2018-09-14T13:02:35.556Z,21.86
2018-09-14T13:05:31.986Z,21.82
2018-09-14T13:06:30.848Z,21.85
2018-09-14T13:08:26.830Z,21.73
2018-09-14T13:09:26.807Z,21.67
2018-09-14T13:11:23.269Z,21.66
2018-09-14T13:12:22.735Z,21.66
2018-09-14T13:14:19.230Z,21.58
2018-09-14T13:15:18.748Z,21.73
2018-09-14T13:17:14.653Z,21.93
2018-09-14T13:18:14.643Z,21.97
2018-09-14T13:20:11.114Z,21.89
2018-09-14T13:21:10.597Z,21.76
2018-09-14T13:23:06.568Z,21.77
2018-09-14T13:24:07.089Z,21.66
2018-09-14T13:26:03.006Z,21.55
2018-09-14T13:27:02.515Z,21.49
2018-09-14T13:28:59.417Z,21.53
2018-09-14T13:29:58.476Z,21.64
2018-09-14T13:31:55.431Z,21.67
2018-09-14T13:32:54.423Z,21.64
2018-09-14T13:34:50.361Z,21.62
2018-09-14T13:35:50.357Z,21.67
2018-09-14T13:37:47.808Z,21.46
2018-09-14T13:38:46.331Z,21.41
2018-09-14T13:40:42.279Z,21.30
2018-09-14T13:41:42.272Z,21.40
2018-09-14T13:43:38.284Z,21.31
2018-09-14T13:44:38.255Z,21.36
2018-09-14T13:46:34.210Z,21.27
2018-09-14T13:47:35.241Z,21.37
2018-09-14T13:49:32.159Z,21.37
2018-09-14T13:50:31.176Z,21.37
2018-09-14T13:52:27.120Z,21.49
2018-09-14T13:53:27.149Z,21.58
2018-09-14T13:55:23.199Z,21.62
2018-09-14T13:56:23.118Z,21.68
2018-09-14T13:58:19.018Z,21.74
2018-09-14T13:59:19.039Z,21.80
2018-09-14T14:01:15.089Z,21.97
2018-09-14T14:02:14.980Z,21.97
2018-09-14T14:04:11.432Z,21.86
2018-09-14T14:05:10.971Z,21.73
2018-09-14T14:07:06.994Z,21.56
2018-09-14T14:08:06.900Z,21.67
2018-09-14T14:10:02.863Z,21.51
2018-09-14T14:11:02.849Z,21.55
2018-09-14T14:12:59.794Z,21.38
2018-09-14T14:14:00.331Z,21.41
2018-09-14T14:15:55.787Z,21.45
2018-09-14T14:16:56.352Z,21.62
2018-09-14T14:18:52.712Z,21.73
2018-09-14T14:19:51.700Z,21.83
2018-09-14T14:21:48.198Z,21.90
2018-09-14T14:22:47.656Z,21.97
2018-09-14T14:24:43.638Z,21.96
2018-09-14T14:25:43.596Z,21.96
2018-09-14T14:27:40.558Z,21.83
2018-09-14T14:28:39.561Z,21.86
2018-09-14T14:30:38.068Z,21.94
2018-09-14T14:31:37.521Z,22.09
2018-09-14T14:33:33.494Z,22.12
2018-09-14T14:34:32.474Z,22.12
2018-09-14T14:36:28.463Z,22.14
2018-09-14T14:37:28.454Z,22.11
2018-09-14T14:39:24.414Z,22.16
2018-09-14T14:40:24.420Z,22.14
2018-09-14T14:42:20.393Z,21.94
2018-09-14T14:43:20.399Z,21.82
2018-09-14T14:45:16.361Z,21.76
2018-09-14T14:46:16.385Z,21.73
2018-09-14T14:48:12.342Z,21.83
2018-09-14T14:49:12.325Z,21.86
2018-09-14T14:51:08.787Z,21.94
2018-09-14T14:52:08.255Z,21.94
2018-09-14T14:54:04.714Z,21.90
2018-09-14T14:55:04.741Z,21.96
2018-09-14T14:57:00.171Z,21.99
2018-09-14T14:58:00.163Z,21.97
2018-09-14T14:59:56.195Z,22.08
2018-09-14T15:00:56.106Z,22.02
2018-09-14T15:02:52.089Z,22.15
2018-09-14T15:03:52.083Z,22.23
2018-09-14T15:05:48.046Z,22.34
2018-09-14T15:06:48.016Z,22.44
2018-09-14T15:08:43.961Z,22.24
2018-09-14T15:09:44.487Z,22.18
2018-09-14T15:11:40.426Z,22.07
2018-09-14T15:12:39.925Z,22.02
2018-09-14T15:14:37.790Z,22.14
2018-09-14T15:15:35.882Z,22.00
2018-09-14T15:17:34.350Z,22.04
2018-09-14T15:18:34.849Z,21.94
2018-09-14T15:20:30.491Z,21.93
2018-09-14T15:21:30.495Z,21.93
2018-09-14T15:23:26.915Z,21.99
2018-09-14T15:24:25.968Z,22.04
2018-09-14T15:26:23.406Z,22.09
2018-09-14T15:27:21.913Z,21.94
2018-09-14T15:29:20.875Z,21.86
2018-09-14T15:30:20.048Z,21.80
2018-09-14T15:32:17.013Z,21.66
2018-09-14T15:33:17.017Z,21.66
2018-09-14T15:35:13.491Z,21.61
2018-09-14T15:36:13.001Z,21.62
2018-09-14T15:38:09.955Z,21.52
2018-09-14T15:39:10.475Z,21.55
2018-09-14T15:41:06.921Z,21.38
2018-09-14T15:42:06.431Z,21.33
2018-09-14T15:44:02.691Z,21.36
2018-09-14T15:45:02.855Z,21.30
2018-09-14T15:46:57.922Z,21.33
2018-09-14T15:47:57.849Z,21.36
2018-09-14T15:49:53.824Z,21.31
2018-09-14T15:50:53.793Z,21.31
2018-09-14T15:52:49.727Z,21.34
2018-09-14T15:53:49.733Z,21.33
2018-09-14T15:55:45.711Z,21.30
2018-09-14T15:56:45.726Z,21.38
2018-09-14T15:58:42.652Z,21.34
2018-09-14T15:59:41.704Z,21.30
2018-09-14T16:01:40.143Z,21.37
2018-09-14T16:02:39.612Z,21.36
2018-09-14T16:04:41.073Z,21.13
2018-09-14T16:05:40.558Z,21.16
2018-09-14T16:07:37.069Z,21.09
2018-09-14T16:08:36.073Z,21.00
2018-09-14T16:10:34.546Z,21.00
2018-09-14T16:11:35.011Z,21.00
2018-09-14T16:13:30.695Z,21.11
2018-09-14T16:14:30.128Z,21.03
2018-09-14T16:16:27.072Z,20.94
2018-09-14T16:17:26.576Z,21.03
2018-09-14T16:19:22.536Z,20.98
2018-09-14T16:20:22.020Z,20.96
2018-09-14T16:22:20.497Z,20.81
2018-09-14T16:23:20.145Z,20.81
2018-09-14T16:25:16.158Z,20.98
2018-09-14T16:26:16.099Z,20.91
2018-09-14T16:28:13.067Z,20.97
2018-09-14T16:29:12.073Z,20.86
2018-09-14T16:31:08.058Z,20.96
2018-09-14T16:32:08.006Z,20.86
2018-09-14T16:34:03.972Z,20.90
2018-09-14T16:35:03.986Z,20.93
2018-09-14T16:37:02.460Z,20.83
2018-09-14T16:38:01.932Z,20.81
2018-09-14T16:39:58.405Z,20.81
2018-09-14T16:40:58.405Z,20.78
2018-09-14T16:42:54.441Z,20.82
2018-09-14T16:43:53.824Z,20.81
2018-09-14T16:45:52.323Z,20.72
2018-09-14T16:46:51.802Z,20.68
2018-09-14T16:48:48.738Z,20.71
2018-09-14T16:49:47.866Z,20.72
2018-09-14T16:51:43.787Z,20.68
2018-09-14T16:52:43.676Z,20.61
2018-09-14T16:54:39.641Z,20.61
2018-09-14T16:55:39.620Z,20.58
2018-09-14T16:57:36.151Z,20.46
2018-09-14T16:58:35.603Z,20.44
2018-09-14T17:00:32.484Z,20.46
2018-09-14T17:01:31.572Z,20.42
2018-09-14T17:03:27.542Z,20.46
2018-09-14T17:04:28.005Z,20.35
2018-09-14T17:06:24.461Z,20.38
2018-09-14T17:07:24.391Z,20.40
2018-09-14T17:09:19.426Z,20.35
2018-09-14T17:10:19.427Z,20.30
2018-09-14T17:12:15.376Z,20.27
2018-09-14T17:13:15.374Z,20.27
2018-09-14T17:15:11.316Z,20.19
2018-09-14T17:16:12.343Z,20.23
2018-09-14T17:18:07.330Z,20.26
2018-09-14T17:19:07.772Z,20.08
2018-09-14T17:21:03.759Z,20.19
2018-09-14T17:22:03.723Z,20.11
2018-09-14T17:23:59.200Z,20.07
2018-09-14T17:24:59.151Z,20.07
2018-09-14T17:26:55.615Z,20.10
2018-09-14T17:27:55.156Z,20.07
2018-09-14T17:29:51.895Z,20.01
2018-09-14T17:30:51.894Z,19.93
2018-09-14T17:32:47.878Z,19.95
2018-09-14T17:33:47.943Z,19.82
2018-09-14T17:35:43.889Z,19.85
2018-09-14T17:36:44.316Z,19.75
2018-09-14T17:38:39.814Z,19.67
2018-09-14T17:39:39.772Z,19.68
2018-09-14T17:41:36.239Z,19.65
2018-09-14T17:42:35.732Z,19.65
2018-09-14T17:44:32.226Z,19.60
2018-09-14T17:45:32.187Z,19.60
2018-09-14T17:47:27.688Z,19.47
2018-09-14T17:48:27.638Z,19.52
2018-09-14T17:50:23.604Z,19.34
2018-09-14T17:51:23.583Z,19.40
2018-09-14T17:53:20.572Z,19.31
2018-09-14T17:54:19.516Z,19.35
2018-09-14T17:56:15.471Z,19.30
2018-09-14T17:57:15.484Z,19.20
2018-09-14T17:59:14.434Z,19.25
2018-09-14T18:00:11.405Z,19.09
2018-09-14T18:02:07.396Z,19.05
2018-09-14T18:03:07.336Z,19.00
2018-09-14T18:05:03.869Z,19.12
2018-09-14T18:06:03.286Z,19.09
2018-09-14T18:07:59.751Z,19.02
2018-09-14T18:08:59.780Z,19.06
2018-09-14T18:10:55.725Z,19.00
2018-09-14T18:11:56.623Z,18.96
2018-09-14T18:13:51.612Z,18.87
2018-09-14T18:14:51.113Z,18.91
2018-09-14T18:16:48.047Z,18.90
2018-09-14T18:17:47.025Z,18.76
2018-09-14T18:19:45.025Z,18.81
2018-09-14T18:20:45.008Z,18.81
2018-09-14T18:22:42.511Z,18.71
2018-09-14T18:23:40.980Z,18.65
2018-09-14T18:25:36.930Z,18.56
2018-09-14T18:26:36.915Z,18.45
2018-09-14T18:28:51.908Z,18.49
2018-09-14T18:29:48.796Z,18.44
2018-09-14T18:31:44.862Z,18.54
2018-09-14T18:32:44.732Z,18.47
2018-09-14T18:34:42.693Z,18.45
2018-09-14T18:35:43.208Z,18.41
2018-09-14T18:37:38.643Z,18.42
2018-09-14T18:38:38.602Z,18.38
2018-09-14T18:40:37.088Z,18.41
2018-09-14T18:41:36.718Z,18.41
2018-09-14T18:43:34.660Z,18.42
2018-09-14T18:44:34.675Z,18.38
2018-09-14T18:46:31.157Z,18.49
2018-09-14T18:47:30.616Z,18.41
2018-09-14T18:49:29.076Z,18.45
2018-09-14T18:50:29.075Z,18.39
2018-09-14T18:52:26.506Z,18.41
2018-09-14T18:53:26.497Z,18.35
2018-09-14T18:55:22.488Z,18.41
2018-09-14T18:56:22.463Z,18.36
2018-09-14T18:58:18.518Z,18.38
2018-09-14T18:59:18.884Z,18.41
2018-09-14T19:01:16.374Z,18.36
2018-09-14T19:02:16.323Z,18.32
2018-09-14T19:04:14.770Z,18.27